• Join FlightAware (Why Join?)
  • Login
  • US Flag 
06:58AM EDT


 

Airport Tracker/Info


-or-


 

Live Flight TrackerFlight Track Log ✈ N511BP ✈ 12-Jun-2013 ✈ KHEF - KDCU

Flight Track Log - Related Links

Times and Time Zones

All times are in EDT time to prevent confusion due to time zone crossing. See the N511BP flight status page for this flight to view local times or setup timezone preferences in your user account.

Time Position Orientation Groundspeed Altitude Reporting Facility
EDT Latitude Longitude Course Direction KTS MPH feet Rate Location/Type
04:50PM 38.7500 -77.6333 288° West 224 258 3,200  Level Potomac TRACON
04:51PM 38.7167 -77.6833 229° Southwest 218 251 5,300 1,980 Climbing Potomac TRACON
04:52PM 38.6844 -77.6981 200° South 221 254 6,300 1,860 Climbing Washington Center
04:53PM 38.6342 -77.7097 190° South 215 247 8,200 1,800 Climbing Washington Center
04:54PM 38.5736 -77.7189 187° South 220 253 10,000 1,680 Climbing Washington Center
04:55PM 38.3666 -77.9835 238° Southwest  Level FlightAware Approximate
04:55PM 38.5086 -77.7328 189° South 205 236 11,700  Level Washington Center
04:56PM 38.4806 -77.7825 234° Southwest 200 230 13,500 1,680 Climbing Washington Center
04:57PM 38.4528 -77.8292 233° Southwest 188 216 15,100 1,500 Climbing Washington Center
04:58PM 38.4267 -77.8789 236° Southwest 177 204 16,600 1,380 Climbing Washington Center
04:59PM 38.4050 -77.9286 241° Southwest 172 198 17,900 1,260 Climbing Washington Center
05:00PM 38.3769 -77.9753 233° Southwest 166 191 19,100 1,140 Climbing Washington Center
05:01PM 38.3486 -78.0275 235° Southwest 172 198 20,200 1,140 Climbing Washington Center
05:02PM 38.3247 -78.0847 242° Southwest 177 204 21,400 1,140 Climbing Washington Center
05:03PM 38.2900 -78.1419 232° Southwest 189 217 22,600 1,080 Climbing Washington Center
05:04PM 38.2575 -78.2017 235° Southwest 200 230 23,700 960 Climbing Washington Center
05:05PM 38.2228 -78.2639 235° Southwest 205 236 24,600 840 Climbing Washington Center
05:06PM 38.2044 -78.3344 252° West 210 242 25,400 600 Climbing Washington Center
05:07PM 38.1778 -78.4100 246° West 225 259 25,900 300 Climbing Washington Center
05:08PM 38.1444 -78.4908 242° Southwest 244 281 26,100 360 Climbing Washington Center
05:09PM 38.1156 -78.5636 243° Southwest 254 292 26,700 420 Climbing Washington Center
05:10PM 38.1069 -78.6583 263° West 259 298 27,000 240 Climbing Washington Center
05:11PM 38.0942 -78.7553 261° West 269 310 27,300 420 Climbing Washington Center
05:12PM 38.0831 -78.8578 262° West 276 318 27,900 360 Climbing Washington Center
05:13PM 38.0697 -78.9575 260° West 276 318 28,100  Climbing Washington Center
05:14PM 38.0297 -79.0453 240° Southwest 276 318 28,000 -60 Descending Washington Center
05:15PM 37.9792 -79.1350 234° Southwest 297 342 28,000  Level Washington Center
05:16PM 37.9328 -79.2197 235° Southwest 324 373 28,000  Level Washington Center
05:17PM 37.8819 -79.3122 235° Southwest 324 373 28,000 -60 Level Washington Center
05:18PM 37.8269 -79.4067 234° Southwest 330 380 27,900 -60 Descending Washington Center
05:19PM 37.7733 -79.5142 238° Southwest 330 380 27,900  Level Washington Center
05:20PM 37.7222 -79.6089 236° Southwest 335 386 27,900 540 Level Washington Center
05:21PM 37.6717 -79.6847 230° Southwest 335 386 29,000 780 Climbing Washington Center
05:22PM 37.6181 -79.7842 236° Southwest 317 365 29,500 600 Climbing Washington Center
05:23PM 37.5756 -79.8658 237° Southwest 317 365 30,300 600 Climbing Washington Center
05:24PM 37.5283 -79.9600 238° Southwest 306 352 30,800 600 Climbing Washington Center
05:25PM 37.4836 -80.0439 236° Southwest 301 346 31,600 660 Climbing Washington Center
05:27PM 37.3847 -80.1944 230° Southwest 294 338 32,900 540 Climbing Atlanta Center
05:28PM 37.3392 -80.2775 235° Southwest 289 333 33,300 600 Climbing Atlanta Center
05:29PM 37.2897 -80.3661 235° Southwest 289 333 34,200 720 Climbing Atlanta Center
05:30PM 37.2381 -80.4467 231° Southwest 294 338 34,800 480 Climbing Atlanta Center
05:31PM 37.1967 -80.5267 237° Southwest 294 338 35,200 480 Climbing Atlanta Center
05:32PM 37.1528 -80.6017 234° Southwest 294 338 35,800 360 Climbing Atlanta Center
05:33PM 37.1114 -80.6892 239° Southwest 294 338 36,000 300 Climbing Atlanta Center
05:34PM 37.0828 -80.7789 248° West 294 338 36,500 360 Climbing Atlanta Center
05:35PM 37.0519 -80.8789 249° West 294 338 36,800 360 Climbing Atlanta Center
05:36PM 37.0131 -80.9872 246° West 308 354 37,300 480 Climbing Atlanta Center
05:37PM 36.9778 -81.0872 246° West 313 360 37,800 300 Climbing Atlanta Center
05:38PM 36.9406 -81.1847 244° Southwest 318 366 38,000 60 Climbing Atlanta Center
05:40PM 36.8678 -81.3819 245° Southwest 324 373 38,000  Level Atlanta Center
05:41PM 36.8283 -81.4869 245° Southwest 324 373 38,000  Level Atlanta Center
05:42PM 36.7931 -81.5994 249° West 338 389 38,000  Level Atlanta Center
05:43PM 36.7536 -81.7094 246° West 344 396 38,000  Level Atlanta Center
05:44PM 36.7119 -81.8194 245° Southwest 349 402 38,000  Level Atlanta Center
05:45PM 36.6639 -81.9400 244° Southwest 349 402 38,000  Level Atlanta Center
05:46PM 36.6219 -82.0547 246° West 356 410 38,000  Level Atlanta Center
05:47PM 36.5800 -82.1697 246° West 361 415 38,000  Level Atlanta Center
05:48PM 36.5378 -82.2817 245° Southwest 361 415 38,000  Level Atlanta Center
05:49PM 36.4936 -82.3936 244° Southwest 361 415 38,000  Level Atlanta Center
05:50PM 36.4514 -82.5081 245° Southwest 366 421 38,000  Level Atlanta Center
05:51PM 36.4067 -82.6225 244° Southwest 360 414 38,000  Level Atlanta Center
05:52PM 36.3622 -82.7367 244° Southwest 366 421 38,000  Level Atlanta Center
05:53PM 36.3194 -82.8533 246° West 366 421 38,000  Level Atlanta Center
05:54PM 36.2767 -82.9672 245° Southwest 360 414 38,000  Level Atlanta Center
05:55PM 36.2319 -83.0839 245° Southwest 360 414 38,000  Level Atlanta Center
05:56PM 36.1889 -83.1975 245° Southwest 365 420 38,000  Level Atlanta Center
05:57PM 36.1436 -83.3111 244° Southwest 365 420 38,000  Level Atlanta Center
05:58PM 36.0983 -83.4272 244° Southwest 365 420 38,000  Level Atlanta Center
05:59PM 36.0553 -83.5431 245° Southwest 365 420 38,000  Level Atlanta Center
06:00PM 36.0181 -83.6433 245° Southwest 365 420 38,000  Level Atlanta Center
06:01PM 35.9703 -83.7567 243° Southwest 365 420 38,000  Level Atlanta Center
06:02PM 35.9267 -83.8719 245° Southwest 365 420 38,000  Level Atlanta Center
06:03PM 35.8831 -83.9825 244° Southwest 365 420 38,000  Level Atlanta Center
06:04PM 35.8372 -84.0950 243° Southwest 365 420 38,000  Level Atlanta Center
06:05PM 35.7933 -84.2078 244° Southwest 365 420 38,000  Level Atlanta Center
06:06PM 35.7472 -84.3203 243° Southwest 365 420 38,000  Level Atlanta Center
06:07PM 35.7031 -84.4300 244° Southwest 365 420 38,000  Level Atlanta Center
06:08PM 35.6567 -84.5422 243° Southwest 365 420 38,000  Level Atlanta Center
06:09PM 35.6103 -84.6544 243° Southwest 360 414 38,000  Level Atlanta Center
06:10PM 35.5597 -84.7739 243° Southwest 365 420 38,000  Level Atlanta Center
06:11PM 35.5172 -84.8883 246° West 365 420 38,000  Level Atlanta Center
06:12PM 35.4706 -85.0000 243° Southwest 365 420 38,000 -480 Level Atlanta Center
06:13PM 35.4256 -85.1142 244° Southwest 365 420 37,100 -960 Descending Atlanta Center
06:14PM 35.3744 -85.2333 242° Southwest 377 434 36,100 -960 Descending Atlanta Center
06:15PM 35.3275 -85.3522 244° Southwest 388 447 35,200 -960 Descending Atlanta Center
06:16PM 35.2781 -85.4711 243° Southwest 388 447 34,200 -960 Descending Atlanta Center
06:17PM 35.2286 -85.5897 243° Southwest 388 447 33,300 -1,020 Descending Atlanta Center
06:18PM 35.1811 -85.7083 244° Southwest 393 452 32,200 -1,380 Descending Atlanta Center
06:19PM 35.1294 -85.8267 242° Southwest 393 452 30,600 -2,520 Descending Atlanta Center
06:21PM 35.0386 -86.0406 243° Southwest 398 458 25,200 -3,000 Descending Memphis Center
06:22PM 34.9961 -86.1442 243° Southwest 383 441 22,300 -2,880 Descending Memphis Center
06:23PM 34.9517 -86.2478 242° Southwest 362 417 19,500 -2,640 Descending Memphis Center
06:24PM 34.9092 -86.3486 243° Southwest 351 404 17,100 -2,460 Descending Memphis Center
06:25PM 34.8683 -86.4442 243° Southwest 340 391 14,600 -2,520 Descending Memphis Center
06:26PM 34.8317 -86.5369 244° Southwest 319 367 12,100 -2,460 Descending Memphis Center
06:27PM 34.7925 -86.6247 242° Southwest 308 354 9,700 -2,460 Descending Memphis Center
06:28PM 34.7594 -86.7069 244° Southwest 296 341 7,200 -2,340 Descending Memphis Center
06:29PM 34.7392 -86.7964 255° West 284 327 5,100 -1,080 Descending Memphis Center
06:30PM 34.7061 -86.8786 244° Southwest 284 327 5,100  Level Memphis Center
06:38PM 34.6541 -86.9454 256° West  Level Estimated
06:45PM 34.6541 -86.9454 78° East  Level Estimated
06:46PM 34.6541 -86.9454 78° East  Level Estimated
06:47PM 34.6541 -86.9454 78° East  Level Estimated
06:48PM 34.6541 -86.9454 78° East  Level Estimated
06:49PM 34.6541 -86.9454 78° East  Level Estimated
06:50PM 34.6541 -86.9454 78° East  Level Estimated
06:51PM 34.6541 -86.9454 78° East  Level Estimated